sensor_id;sensor_type;location;lat;lon;timestamp;P1;durP1;ratioP1;P2;durP2;ratioP2
4724;SDS011;2376;53.544;10.226;2022-11-15T00:02:02;35.30;;;24.10;;
4724;SDS011;2376;53.544;10.226;2022-11-15T00:04:29;33.03;;;22.70;;
4724;SDS011;2376;53.544;10.226;2022-11-15T00:06:56;32.37;;;23.47;;
4724;SDS011;2376;53.544;10.226;2022-11-15T00:09:24;37.53;;;25.00;;
4724;SDS011;2376;53.544;10.226;2022-11-15T00:11:50;28.77;;;22.43;;
4724;SDS011;2376;53.544;10.226;2022-11-15T00:14:17;30.63;;;23.80;;
4724;SDS011;2376;53.544;10.226;2022-11-15T00:16:44;35.20;;;23.40;;
4724;SDS011;2376;53.544;10.226;2022-11-15T00:19:11;35.73;;;25.53;;
4724;SDS011;2376;53.544;10.226;2022-11-15T00:21:38;39.73;;;24.53;;
4724;SDS011;2376;53.544;10.226;2022-11-15T00:24:05;33.17;;;23.87;;
4724;SDS011;2376;53.544;10.226;2022-11-15T00:26:33;35.23;;;22.60;;
4724;SDS011;2376;53.544;10.226;2022-11-15T00:29:00;34.53;;;23.33;;
4724;SDS011;2376;53.544;10.226;2022-11-15T00:31:27;34.97;;;24.17;;
4724;SDS011;2376;53.544;10.226;2022-11-15T00:33:53;32.20;;;23.67;;
4724;SDS011;2376;53.544;10.226;2022-11-15T00:36:20;37.57;;;24.60;;
4724;SDS011;2376;53.544;10.226;2022-11-15T00:38:47;32.03;;;23.37;;
4724;SDS011;2376;53.544;10.226;2022-11-15T00:41:13;39.00;;;26.70;;
4724;SDS011;2376;53.544;10.226;2022-11-15T00:43:41;35.53;;;24.77;;
4724;SDS011;2376;53.544;10.226;2022-11-15T00:46:09;32.80;;;22.23;;
4724;SDS011;2376;53.544;10.226;2022-11-15T00:48:35;35.90;;;24.27;;
4724;SDS011;2376;53.544;10.226;2022-11-15T00:51:02;37.33;;;24.73;;
4724;SDS011;2376;53.544;10.226;2022-11-15T00:53:29;29.17;;;21.60;;
4724;SDS011;2376;53.544;10.226;2022-11-15T00:55:56;35.50;;;22.73;;
4724;SDS011;2376;53.544;10.226;2022-11-15T00:58:22;35.60;;;23.90;;
4724;SDS011;2376;53.544;10.226;2022-11-15T01:00:50;29.87;;;22.50;;
4724;SDS011;2376;53.544;10.226;2022-11-15T01:03:17;36.10;;;24.10;;
4724;SDS011;2376;53.544;10.226;2022-11-15T01:05:44;35.30;;;22.17;;
4724;SDS011;2376;53.544;10.226;2022-11-15T01:08:12;39.90;;;24.93;;
4724;SDS011;2376;53.544;10.226;2022-11-15T01:10:39;33.17;;;24.33;;
4724;SDS011;2376;53.544;10.226;2022-11-15T01:13:05;34.07;;;23.80;;
4724;SDS011;2376;53.544;10.226;2022-11-15T01:15:32;33.90;;;24.77;;
4724;SDS011;2376;53.544;10.226;2022-11-15T01:18:00;36.50;;;23.83;;
4724;SDS011;2376;53.544;10.226;2022-11-15T01:20:27;33.70;;;22.47;;
4724;SDS011;2376;53.544;10.226;2022-11-15T01:22:54;33.60;;;24.20;;
4724;SDS011;2376;53.544;10.226;2022-11-15T01:25:20;34.50;;;23.53;;
4724;SDS011;2376;53.544;10.226;2022-11-15T01:27:47;38.70;;;24.00;;
4724;SDS011;2376;53.544;10.226;2022-11-15T01:30:14;38.77;;;25.60;;
4724;SDS011;2376;53.544;10.226;2022-11-15T01:32:41;36.57;;;24.30;;
4724;SDS011;2376;53.544;10.226;2022-11-15T01:35:09;31.30;;;21.20;;
4724;SDS011;2376;53.544;10.226;2022-11-15T01:37:35;35.50;;;22.10;;
4724;SDS011;2376;53.544;10.226;2022-11-15T01:40:02;37.10;;;24.03;;
4724;SDS011;2376;53.544;10.226;2022-11-15T01:42:29;32.13;;;22.93;;
4724;SDS011;2376;53.544;10.226;2022-11-15T01:44:56;35.00;;;25.43;;
4724;SDS011;2376;53.544;10.226;2022-11-15T01:47:23;35.10;;;23.00;;
4724;SDS011;2376;53.544;10.226;2022-11-15T01:49:53;32.07;;;23.00;;
4724;SDS011;2376;53.544;10.226;2022-11-15T01:52:25;31.80;;;22.00;;
4724;SDS011;2376;53.544;10.226;2022-11-15T01:54:56;29.37;;;21.90;;
4724;SDS011;2376;53.544;10.226;2022-11-15T01:57:27;32.33;;;23.90;;
4724;SDS011;2376;53.544;10.226;2022-11-15T01:59:54;31.50;;;21.00;;
4724;SDS011;2376;53.544;10.226;2022-11-15T02:02:21;28.20;;;20.23;;
4724;SDS011;2376;53.544;10.226;2022-11-15T02:04:48;25.83;;;20.67;;
4724;SDS011;2376;53.544;10.226;2022-11-15T02:07:15;32.73;;;21.73;;
4724;SDS011;2376;53.544;10.226;2022-11-15T02:09:44;27.73;;;19.50;;
4724;SDS011;2376;53.544;10.226;2022-11-15T02:12:13;28.90;;;20.40;;
4724;SDS011;2376;53.544;10.226;2022-11-15T02:14:44;25.13;;;19.10;;
4724;SDS011;2376;53.544;10.226;2022-11-15T02:17:21;28.73;;;20.30;;
4724;SDS011;2376;53.544;10.226;2022-11-15T02:20:17;27.37;;;20.10;;
4724;SDS011;2376;53.544;10.226;2022-11-15T02:23:04;26.33;;;19.47;;
4724;SDS011;2376;53.544;10.226;2022-11-15T02:25:54;32.10;;;20.57;;
4724;SDS011;2376;53.544;10.226;2022-11-15T02:28:37;27.43;;;19.90;;
4724;SDS011;2376;53.544;10.226;2022-11-15T02:31:13;26.90;;;19.20;;
4724;SDS011;2376;53.544;10.226;2022-11-15T02:33:50;26.23;;;19.63;;
4724;SDS011;2376;53.544;10.226;2022-11-15T02:36:26;29.43;;;20.27;;
4724;SDS011;2376;53.544;10.226;2022-11-15T02:39:02;29.20;;;20.50;;
4724;SDS011;2376;53.544;10.226;2022-11-15T02:41:37;25.10;;;20.37;;
4724;SDS011;2376;53.544;10.226;2022-11-15T02:44:09;26.50;;;20.13;;
4724;SDS011;2376;53.544;10.226;2022-11-15T02:46:42;24.33;;;19.23;;
4724;SDS011;2376;53.544;10.226;2022-11-15T02:49:31;32.10;;;21.83;;
4724;SDS011;2376;53.544;10.226;2022-11-15T02:51:59;28.63;;;21.13;;
4724;SDS011;2376;53.544;10.226;2022-11-15T02:54:28;26.77;;;20.40;;
4724;SDS011;2376;53.544;10.226;2022-11-15T02:56:58;27.93;;;18.90;;
4724;SDS011;2376;53.544;10.226;2022-11-15T02:59:41;24.27;;;19.43;;
4724;SDS011;2376;53.544;10.226;2022-11-15T03:02:23;25.80;;;18.60;;
4724;SDS011;2376;53.544;10.226;2022-11-15T03:05:03;25.70;;;18.80;;
4724;SDS011;2376;53.544;10.226;2022-11-15T03:07:37;27.17;;;18.70;;
4724;SDS011;2376;53.544;10.226;2022-11-15T03:10:10;26.30;;;18.27;;
4724;SDS011;2376;53.544;10.226;2022-11-15T03:12:44;26.40;;;19.50;;
4724;SDS011;2376;53.544;10.226;2022-11-15T03:15:16;24.23;;;18.17;;
4724;SDS011;2376;53.544;10.226;2022-11-15T03:17:49;28.43;;;18.80;;
4724;SDS011;2376;53.544;10.226;2022-11-15T03:20:21;29.33;;;20.90;;
4724;SDS011;2376;53.544;10.226;2022-11-15T03:22:48;30.57;;;20.10;;
4724;SDS011;2376;53.544;10.226;2022-11-15T03:25:17;26.97;;;18.97;;
4724;SDS011;2376;53.544;10.226;2022-11-15T03:27:48;25.80;;;18.10;;
4724;SDS011;2376;53.544;10.226;2022-11-15T03:30:18;27.20;;;19.93;;
4724;SDS011;2376;53.544;10.226;2022-11-15T03:32:46;28.07;;;19.33;;
4724;SDS011;2376;53.544;10.226;2022-11-15T03:35:17;26.60;;;19.73;;
4724;SDS011;2376;53.544;10.226;2022-11-15T03:37:48;24.63;;;18.00;;
4724;SDS011;2376;53.544;10.226;2022-11-15T03:40:18;22.77;;;17.20;;
4724;SDS011;2376;53.544;10.226;2022-11-15T03:42:52;21.83;;;18.30;;
4724;SDS011;2376;53.544;10.226;2022-11-15T03:45:27;23.77;;;18.07;;
4724;SDS011;2376;53.544;10.226;2022-11-15T03:47:59;24.10;;;17.30;;
4724;SDS011;2376;53.544;10.226;2022-11-15T03:50:29;24.90;;;18.03;;
4724;SDS011;2376;53.544;10.226;2022-11-15T03:52:56;30.93;;;18.73;;
4724;SDS011;2376;53.544;10.226;2022-11-15T03:55:24;24.53;;;18.47;;
4724;SDS011;2376;53.544;10.226;2022-11-15T03:57:52;22.93;;;16.50;;
4724;SDS011;2376;53.544;10.226;2022-11-15T04:00:21;22.00;;;16.10;;
4724;SDS011;2376;53.544;10.226;2022-11-15T04:02:48;22.73;;;16.80;;
4724;SDS011;2376;53.544;10.226;2022-11-15T04:05:16;21.87;;;17.67;;
4724;SDS011;2376;53.544;10.226;2022-11-15T04:07:43;23.27;;;17.27;;
4724;SDS011;2376;53.544;10.226;2022-11-15T04:10:10;25.73;;;16.97;;
4724;SDS011;2376;53.544;10.226;2022-11-15T04:12:38;25.50;;;17.10;;
4724;SDS011;2376;53.544;10.226;2022-11-15T04:15:08;25.67;;;18.40;;
4724;SDS011;2376;53.544;10.226;2022-11-15T04:17:38;25.20;;;18.20;;
4724;SDS011;2376;53.544;10.226;2022-11-15T04:20:06;21.93;;;16.77;;
4724;SDS011;2376;53.544;10.226;2022-11-15T04:22:54;22.20;;;17.90;;
4724;SDS011;2376;53.544;10.226;2022-11-15T04:25:39;22.63;;;17.80;;
4724;SDS011;2376;53.544;10.226;2022-11-15T04:28:07;23.00;;;18.30;;
4724;SDS011;2376;53.544;10.226;2022-11-15T04:30:34;23.90;;;17.20;;
4724;SDS011;2376;53.544;10.226;2022-11-15T04:33:00;22.40;;;16.80;;
4724;SDS011;2376;53.544;10.226;2022-11-15T04:35:27;23.50;;;17.50;;
4724;SDS011;2376;53.544;10.226;2022-11-15T04:37:55;25.83;;;19.13;;
4724;SDS011;2376;53.544;10.226;2022-11-15T04:40:22;26.17;;;18.27;;
4724;SDS011;2376;53.544;10.226;2022-11-15T04:42:49;25.57;;;18.90;;
4724;SDS011;2376;53.544;10.226;2022-11-15T04:45:15;33.40;;;19.50;;
4724;SDS011;2376;53.544;10.226;2022-11-15T04:47:43;25.97;;;18.50;;
4724;SDS011;2376;53.544;10.226;2022-11-15T04:50:10;23.90;;;18.07;;
4724;SDS011;2376;53.544;10.226;2022-11-15T04:52:38;24.57;;;17.97;;
4724;SDS011;2376;53.544;10.226;2022-11-15T04:55:07;24.90;;;17.90;;
4724;SDS011;2376;53.544;10.226;2022-11-15T04:57:34;25.93;;;17.60;;
4724;SDS011;2376;53.544;10.226;2022-11-15T05:00:02;26.40;;;19.90;;
4724;SDS011;2376;53.544;10.226;2022-11-15T05:02:29;25.30;;;18.77;;
4724;SDS011;2376;53.544;10.226;2022-11-15T05:05:16;25.37;;;19.03;;
4724;SDS011;2376;53.544;10.226;2022-11-15T05:07:42;26.20;;;19.17;;
4724;SDS011;2376;53.544;10.226;2022-11-15T05:10:10;25.70;;;18.70;;
4724;SDS011;2376;53.544;10.226;2022-11-15T05:12:37;24.77;;;19.47;;
4724;SDS011;2376;53.544;10.226;2022-11-15T05:15:04;27.73;;;19.90;;
4724;SDS011;2376;53.544;10.226;2022-11-15T05:17:32;25.00;;;17.90;;
4724;SDS011;2376;53.544;10.226;2022-11-15T05:19:58;31.63;;;21.57;;
4724;SDS011;2376;53.544;10.226;2022-11-15T05:22:25;26.40;;;18.17;;
4724;SDS011;2376;53.544;10.226;2022-11-15T05:24:52;27.50;;;17.87;;
4724;SDS011;2376;53.544;10.226;2022-11-15T05:27:20;26.90;;;19.50;;
4724;SDS011;2376;53.544;10.226;2022-11-15T05:29:47;24.23;;;17.43;;
4724;SDS011;2376;53.544;10.226;2022-11-15T05:32:14;31.00;;;19.90;;
4724;SDS011;2376;53.544;10.226;2022-11-15T05:34:41;26.07;;;19.67;;
4724;SDS011;2376;53.544;10.226;2022-11-15T05:37:08;27.03;;;19.80;;
4724;SDS011;2376;53.544;10.226;2022-11-15T05:39:35;23.83;;;18.33;;
4724;SDS011;2376;53.544;10.226;2022-11-15T05:42:02;29.47;;;20.27;;
4724;SDS011;2376;53.544;10.226;2022-11-15T05:44:35;23.40;;;18.47;;
4724;SDS011;2376;53.544;10.226;2022-11-15T05:47:03;25.07;;;19.87;;
4724;SDS011;2376;53.544;10.226;2022-11-15T05:49:32;29.00;;;20.57;;
4724;SDS011;2376;53.544;10.226;2022-11-15T05:52:02;26.33;;;20.10;;
4724;SDS011;2376;53.544;10.226;2022-11-15T05:54:31;27.87;;;19.50;;
4724;SDS011;2376;53.544;10.226;2022-11-15T05:56:58;26.93;;;17.70;;
4724;SDS011;2376;53.544;10.226;2022-11-15T05:59:26;24.13;;;18.90;;
4724;SDS011;2376;53.544;10.226;2022-11-15T06:01:56;27.13;;;19.13;;
4724;SDS011;2376;53.544;10.226;2022-11-15T06:04:23;23.93;;;17.57;;
4724;SDS011;2376;53.544;10.226;2022-11-15T06:06:50;24.00;;;18.37;;
4724;SDS011;2376;53.544;10.226;2022-11-15T06:09:16;24.60;;;18.27;;
4724;SDS011;2376;53.544;10.226;2022-11-15T06:11:43;24.70;;;19.50;;
4724;SDS011;2376;53.544;10.226;2022-11-15T06:14:09;28.03;;;18.83;;
4724;SDS011;2376;53.544;10.226;2022-11-15T06:16:36;24.40;;;18.30;;
4724;SDS011;2376;53.544;10.226;2022-11-15T06:19:05;28.33;;;19.10;;
4724;SDS011;2376;53.544;10.226;2022-11-15T06:21:32;27.23;;;19.10;;
4724;SDS011;2376;53.544;10.226;2022-11-15T06:23:58;26.37;;;20.67;;
4724;SDS011;2376;53.544;10.226;2022-11-15T06:26:25;24.43;;;18.93;;
4724;SDS011;2376;53.544;10.226;2022-11-15T06:28:52;26.60;;;18.23;;
4724;SDS011;2376;53.544;10.226;2022-11-15T06:31:18;26.10;;;19.90;;
4724;SDS011;2376;53.544;10.226;2022-11-15T06:33:46;24.13;;;18.67;;
4724;SDS011;2376;53.544;10.226;2022-11-15T06:36:15;30.93;;;18.37;;
4724;SDS011;2376;53.544;10.226;2022-11-15T06:38:43;22.90;;;19.23;;
4724;SDS011;2376;53.544;10.226;2022-11-15T06:41:10;26.23;;;19.40;;
4724;SDS011;2376;53.544;10.226;2022-11-15T06:43:38;21.30;;;18.07;;
4724;SDS011;2376;53.544;10.226;2022-11-15T06:46:06;25.57;;;20.07;;
4724;SDS011;2376;53.544;10.226;2022-11-15T06:48:33;26.10;;;20.33;;
4724;SDS011;2376;53.544;10.226;2022-11-15T06:51:01;27.30;;;20.70;;
4724;SDS011;2376;53.544;10.226;2022-11-15T06:53:30;29.60;;;21.33;;
4724;SDS011;2376;53.544;10.226;2022-11-15T06:55:58;26.30;;;19.93;;
4724;SDS011;2376;53.544;10.226;2022-11-15T06:58:26;28.03;;;20.20;;
4724;SDS011;2376;53.544;10.226;2022-11-15T07:00:53;25.03;;;18.43;;
4724;SDS011;2376;53.544;10.226;2022-11-15T07:03:20;24.33;;;18.10;;
4724;SDS011;2376;53.544;10.226;2022-11-15T07:05:50;24.73;;;18.83;;
4724;SDS011;2376;53.544;10.226;2022-11-15T07:08:19;27.27;;;20.43;;
4724;SDS011;2376;53.544;10.226;2022-11-15T07:10:47;23.30;;;17.30;;
4724;SDS011;2376;53.544;10.226;2022-11-15T07:13:14;24.90;;;19.00;;
4724;SDS011;2376;53.544;10.226;2022-11-15T07:15:40;24.30;;;18.57;;
4724;SDS011;2376;53.544;10.226;2022-11-15T07:18:07;25.50;;;18.37;;
4724;SDS011;2376;53.544;10.226;2022-11-15T07:20:34;27.90;;;20.80;;
4724;SDS011;2376;53.544;10.226;2022-11-15T07:23:00;25.03;;;17.87;;
4724;SDS011;2376;53.544;10.226;2022-11-15T07:25:27;23.03;;;17.30;;
4724;SDS011;2376;53.544;10.226;2022-11-15T07:27:55;26.07;;;18.47;;
4724;SDS011;2376;53.544;10.226;2022-11-15T07:30:22;28.90;;;18.87;;
4724;SDS011;2376;53.544;10.226;2022-11-15T07:32:51;22.80;;;17.43;;
4724;SDS011;2376;53.544;10.226;2022-11-15T07:35:19;26.00;;;19.30;;
4724;SDS011;2376;53.544;10.226;2022-11-15T07:37:52;26.13;;;19.03;;
4724;SDS011;2376;53.544;10.226;2022-11-15T07:40:19;22.60;;;17.90;;
4724;SDS011;2376;53.544;10.226;2022-11-15T07:42:46;26.23;;;20.67;;
4724;SDS011;2376;53.544;10.226;2022-11-15T07:45:22;23.73;;;17.20;;
4724;SDS011;2376;53.544;10.226;2022-11-15T07:47:50;25.00;;;19.10;;
4724;SDS011;2376;53.544;10.226;2022-11-15T07:50:18;22.63;;;17.60;;
4724;SDS011;2376;53.544;10.226;2022-11-15T07:52:45;22.10;;;17.50;;
4724;SDS011;2376;53.544;10.226;2022-11-15T07:55:12;25.00;;;19.87;;
4724;SDS011;2376;53.544;10.226;2022-11-15T07:57:38;25.20;;;17.67;;
4724;SDS011;2376;53.544;10.226;2022-11-15T08:00:05;25.73;;;18.57;;
4724;SDS011;2376;53.544;10.226;2022-11-15T08:02:34;26.63;;;19.43;;
4724;SDS011;2376;53.544;10.226;2022-11-15T08:05:01;25.50;;;18.50;;
4724;SDS011;2376;53.544;10.226;2022-11-15T08:07:28;26.50;;;18.50;;
4724;SDS011;2376;53.544;10.226;2022-11-15T08:09:56;21.67;;;17.80;;
4724;SDS011;2376;53.544;10.226;2022-11-15T08:12:23;22.40;;;17.10;;
4724;SDS011;2376;53.544;10.226;2022-11-15T08:14:50;20.90;;;16.60;;
4724;SDS011;2376;53.544;10.226;2022-11-15T08:17:16;24.03;;;17.80;;
4724;SDS011;2376;53.544;10.226;2022-11-15T08:19:44;21.83;;;17.50;;
4724;SDS011;2376;53.544;10.226;2022-11-15T08:22:11;23.63;;;17.30;;
4724;SDS011;2376;53.544;10.226;2022-11-15T08:24:38;24.30;;;18.43;;
4724;SDS011;2376;53.544;10.226;2022-11-15T08:27:04;21.43;;;16.70;;
4724;SDS011;2376;53.544;10.226;2022-11-15T08:29:39;21.73;;;16.80;;
4724;SDS011;2376;53.544;10.226;2022-11-15T08:32:07;21.93;;;18.20;;
4724;SDS011;2376;53.544;10.226;2022-11-15T08:34:34;20.27;;;18.07;;
4724;SDS011;2376;53.544;10.226;2022-11-15T08:37:02;24.67;;;17.20;;
4724;SDS011;2376;53.544;10.226;2022-11-15T08:39:29;21.07;;;16.80;;
4724;SDS011;2376;53.544;10.226;2022-11-15T08:41:55;22.40;;;18.33;;
4724;SDS011;2376;53.544;10.226;2022-11-15T08:44:22;24.83;;;18.80;;
4724;SDS011;2376;53.544;10.226;2022-11-15T08:46:49;27.20;;;17.10;;
4724;SDS011;2376;53.544;10.226;2022-11-15T08:49:16;22.90;;;16.67;;
4724;SDS011;2376;53.544;10.226;2022-11-15T08:51:44;23.07;;;18.20;;
4724;SDS011;2376;53.544;10.226;2022-11-15T08:54:12;23.83;;;15.60;;
4724;SDS011;2376;53.544;10.226;2022-11-15T08:56:39;21.00;;;16.20;;
4724;SDS011;2376;53.544;10.226;2022-11-15T08:59:06;22.53;;;16.00;;
4724;SDS011;2376;53.544;10.226;2022-11-15T09:01:32;18.63;;;16.10;;
4724;SDS011;2376;53.544;10.226;2022-11-15T09:03:59;19.83;;;16.20;;
4724;SDS011;2376;53.544;10.226;2022-11-15T09:06:26;22.03;;;17.03;;
4724;SDS011;2376;53.544;10.226;2022-11-15T09:08:52;21.90;;;17.00;;
4724;SDS011;2376;53.544;10.226;2022-11-15T09:11:20;19.87;;;16.00;;
4724;SDS011;2376;53.544;10.226;2022-11-15T09:13:48;21.17;;;17.57;;
4724;SDS011;2376;53.544;10.226;2022-11-15T09:16:15;21.87;;;16.90;;
4724;SDS011;2376;53.544;10.226;2022-11-15T09:18:42;21.67;;;16.73;;
4724;SDS011;2376;53.544;10.226;2022-11-15T09:21:09;21.47;;;17.73;;
4724;SDS011;2376;53.544;10.226;2022-11-15T09:23:36;21.97;;;17.10;;
4724;SDS011;2376;53.544;10.226;2022-11-15T09:26:03;21.80;;;16.83;;
4724;SDS011;2376;53.544;10.226;2022-11-15T09:28:32;21.17;;;15.80;;
4724;SDS011;2376;53.544;10.226;2022-11-15T09:30:59;19.53;;;16.40;;
4724;SDS011;2376;53.544;10.226;2022-11-15T09:33:27;22.00;;;17.37;;
4724;SDS011;2376;53.544;10.226;2022-11-15T09:35:56;20.17;;;16.43;;
4724;SDS011;2376;53.544;10.226;2022-11-15T09:38:26;21.53;;;17.47;;
4724;SDS011;2376;53.544;10.226;2022-11-15T09:40:55;22.47;;;17.30;;
4724;SDS011;2376;53.544;10.226;2022-11-15T09:43:37;18.40;;;15.03;;
4724;SDS011;2376;53.544;10.226;2022-11-15T09:46:13;18.23;;;15.40;;
4724;SDS011;2376;53.544;10.226;2022-11-15T09:48:50;20.13;;;16.13;;
4724;SDS011;2376;53.544;10.226;2022-11-15T09:51:23;19.00;;;15.23;;
4724;SDS011;2376;53.544;10.226;2022-11-15T09:53:54;20.93;;;16.50;;
4724;SDS011;2376;53.544;10.226;2022-11-15T09:56:29;15.50;;;13.87;;
4724;SDS011;2376;53.544;10.226;2022-11-15T09:59:02;16.00;;;13.90;;
4724;SDS011;2376;53.544;10.226;2022-11-15T10:01:55;17.73;;;14.70;;
4724;SDS011;2376;53.544;10.226;2022-11-15T10:04:27;21.40;;;13.50;;
4724;SDS011;2376;53.544;10.226;2022-11-15T10:06:55;15.97;;;14.27;;
4724;SDS011;2376;53.544;10.226;2022-11-15T10:09:28;18.00;;;14.10;;
4724;SDS011;2376;53.544;10.226;2022-11-15T10:12:02;15.13;;;13.67;;
4724;SDS011;2376;53.544;10.226;2022-11-15T10:14:30;19.33;;;13.33;;
4724;SDS011;2376;53.544;10.226;2022-11-15T10:17:11;16.67;;;14.97;;
4724;SDS011;2376;53.544;10.226;2022-11-15T10:20:02;15.87;;;14.27;;
4724;SDS011;2376;53.544;10.226;2022-11-15T10:22:38;14.60;;;12.93;;
4724;SDS011;2376;53.544;10.226;2022-11-15T10:25:10;18.40;;;14.43;;
4724;SDS011;2376;53.544;10.226;2022-11-15T10:27:42;15.33;;;13.73;;
4724;SDS011;2376;53.544;10.226;2022-11-15T10:30:16;16.63;;;14.57;;
4724;SDS011;2376;53.544;10.226;2022-11-15T10:32:44;16.37;;;14.73;;
4724;SDS011;2376;53.544;10.226;2022-11-15T10:35:19;15.07;;;13.50;;
4724;SDS011;2376;53.544;10.226;2022-11-15T10:37:48;14.63;;;13.13;;
4724;SDS011;2376;53.544;10.226;2022-11-15T10:40:16;15.93;;;13.93;;
4724;SDS011;2376;53.544;10.226;2022-11-15T10:42:44;15.80;;;14.13;;
4724;SDS011;2376;53.544;10.226;2022-11-15T10:45:27;21.80;;;13.33;;
4724;SDS011;2376;53.544;10.226;2022-11-15T10:47:59;18.43;;;13.00;;
4724;SDS011;2376;53.544;10.226;2022-11-15T10:50:48;13.63;;;12.00;;
4724;SDS011;2376;53.544;10.226;2022-11-15T10:53:18;17.47;;;14.03;;
4724;SDS011;2376;53.544;10.226;2022-11-15T10:55:49;15.10;;;13.50;;
4724;SDS011;2376;53.544;10.226;2022-11-15T10:58:21;18.70;;;13.07;;
4724;SDS011;2376;53.544;10.226;2022-11-15T11:00:56;14.90;;;13.33;;
4724;SDS011;2376;53.544;10.226;2022-11-15T11:03:35;16.50;;;14.10;;
4724;SDS011;2376;53.544;10.226;2022-11-15T11:06:04;14.80;;;13.23;;
4724;SDS011;2376;53.544;10.226;2022-11-15T11:08:33;14.63;;;11.67;;
4724;SDS011;2376;53.544;10.226;2022-11-15T11:11:00;12.93;;;11.63;;
4724;SDS011;2376;53.544;10.226;2022-11-15T11:13:29;14.30;;;11.70;;
4724;SDS011;2376;53.544;10.226;2022-11-15T11:16:00;14.70;;;12.63;;
4724;SDS011;2376;53.544;10.226;2022-11-15T11:18:52;14.17;;;12.53;;
4724;SDS011;2376;53.544;10.226;2022-11-15T11:21:30;17.80;;;14.30;;
4724;SDS011;2376;53.544;10.226;2022-11-15T11:24:06;14.77;;;13.30;;
4724;SDS011;2376;53.544;10.226;2022-11-15T11:26:42;17.80;;;12.50;;
4724;SDS011;2376;53.544;10.226;2022-11-15T11:29:19;15.67;;;12.57;;
4724;SDS011;2376;53.544;10.226;2022-11-15T11:31:55;17.13;;;11.93;;
4724;SDS011;2376;53.544;10.226;2022-11-15T11:34:33;14.67;;;13.17;;
4724;SDS011;2376;53.544;10.226;2022-11-15T11:37:10;14.43;;;12.80;;
4724;SDS011;2376;53.544;10.226;2022-11-15T11:39:46;13.93;;;12.53;;
4724;SDS011;2376;53.544;10.226;2022-11-15T11:42:24;20.70;;;12.93;;
4724;SDS011;2376;53.544;10.226;2022-11-15T11:45:00;13.07;;;11.50;;
4724;SDS011;2376;53.544;10.226;2022-11-15T11:47:51;14.57;;;13.00;;
4724;SDS011;2376;53.544;10.226;2022-11-15T11:50:25;14.30;;;12.77;;
4724;SDS011;2376;53.544;10.226;2022-11-15T11:52:55;12.83;;;11.63;;
4724;SDS011;2376;53.544;10.226;2022-11-15T11:55:24;12.20;;;10.90;;
4724;SDS011;2376;53.544;10.226;2022-11-15T11:57:58;18.33;;;11.60;;
4724;SDS011;2376;53.544;10.226;2022-11-15T12:00:31;13.87;;;12.27;;
4724;SDS011;2376;53.544;10.226;2022-11-15T12:03:04;13.50;;;12.10;;
4724;SDS011;2376;53.544;10.226;2022-11-15T12:05:38;14.13;;;12.37;;
4724;SDS011;2376;53.544;10.226;2022-11-15T12:08:14;16.10;;;11.97;;
4724;SDS011;2376;53.544;10.226;2022-11-15T12:10:53;13.20;;;11.40;;
4724;SDS011;2376;53.544;10.226;2022-11-15T12:13:25;13.70;;;12.30;;
4724;SDS011;2376;53.544;10.226;2022-11-15T12:15:59;17.13;;;12.63;;
4724;SDS011;2376;53.544;10.226;2022-11-15T12:18:33;15.40;;;12.23;;
4724;SDS011;2376;53.544;10.226;2022-11-15T12:21:01;12.20;;;10.90;;
4724;SDS011;2376;53.544;10.226;2022-11-15T12:23:35;13.53;;;11.10;;
4724;SDS011;2376;53.544;10.226;2022-11-15T12:26:06;11.27;;;9.80;;
4724;SDS011;2376;53.544;10.226;2022-11-15T12:28:37;14.33;;;11.93;;
4724;SDS011;2376;53.544;10.226;2022-11-15T12:31:11;11.83;;;10.60;;
4724;SDS011;2376;53.544;10.226;2022-11-15T12:33:43;14.07;;;11.07;;
4724;SDS011;2376;53.544;10.226;2022-11-15T12:36:11;12.33;;;11.03;;
4724;SDS011;2376;53.544;10.226;2022-11-15T12:38:56;12.57;;;11.37;;
4724;SDS011;2376;53.544;10.226;2022-11-15T12:41:25;11.90;;;10.77;;
4724;SDS011;2376;53.544;10.226;2022-11-15T12:43:53;13.10;;;10.37;;
4724;SDS011;2376;53.544;10.226;2022-11-15T12:46:21;15.37;;;10.23;;
4724;SDS011;2376;53.544;10.226;2022-11-15T12:49:11;12.07;;;10.80;;
4724;SDS011;2376;53.544;10.226;2022-11-15T12:52:06;11.40;;;10.17;;
4724;SDS011;2376;53.544;10.226;2022-11-15T12:57:34;12.13;;;9.53;;
4724;SDS011;2376;53.544;10.226;2022-11-15T13:00:05;11.47;;;10.27;;
4724;SDS011;2376;53.544;10.226;2022-11-15T13:06:04;11.57;;;10.20;;
4724;SDS011;2376;53.544;10.226;2022-11-15T13:20:17;10.77;;;9.47;;
4724;SDS011;2376;53.544;10.226;2022-11-15T13:22:50;10.37;;;9.37;;
4724;SDS011;2376;53.544;10.226;2022-11-15T13:25:22;12.80;;;10.30;;
4724;SDS011;2376;53.544;10.226;2022-11-15T13:27:56;10.70;;;9.60;;
4724;SDS011;2376;53.544;10.226;2022-11-15T13:30:24;67.57;;;14.30;;
4724;SDS011;2376;53.544;10.226;2022-11-15T13:32:52;11.10;;;9.73;;
4724;SDS011;2376;53.544;10.226;2022-11-15T13:35:23;10.37;;;9.40;;
4724;SDS011;2376;53.544;10.226;2022-11-15T13:37:53;12.13;;;9.57;;
4724;SDS011;2376;53.544;10.226;2022-11-15T13:40:22;11.70;;;9.27;;
4724;SDS011;2376;53.544;10.226;2022-11-15T13:42:52;10.37;;;9.37;;
4724;SDS011;2376;53.544;10.226;2022-11-15T13:45:19;10.83;;;9.73;;
4724;SDS011;2376;53.544;10.226;2022-11-15T13:47:51;11.07;;;9.97;;
4724;SDS011;2376;53.544;10.226;2022-11-15T13:50:20;10.97;;;9.87;;
4724;SDS011;2376;53.544;10.226;2022-11-15T13:52:48;10.43;;;9.33;;
4724;SDS011;2376;53.544;10.226;2022-11-15T13:55:17;11.57;;;8.60;;
4724;SDS011;2376;53.544;10.226;2022-11-15T13:57:47;10.27;;;9.23;;
4724;SDS011;2376;53.544;10.226;2022-11-15T14:00:26;11.13;;;10.10;;
4724;SDS011;2376;53.544;10.226;2022-11-15T14:03:03;10.03;;;9.03;;
4724;SDS011;2376;53.544;10.226;2022-11-15T14:05:33;10.13;;;9.03;;
4724;SDS011;2376;53.544;10.226;2022-11-15T14:08:01;13.73;;;9.23;;
4724;SDS011;2376;53.544;10.226;2022-11-15T14:10:32;10.30;;;9.30;;
4724;SDS011;2376;53.544;10.226;2022-11-15T14:13:01;10.07;;;9.07;;
4724;SDS011;2376;53.544;10.226;2022-11-15T14:15:30;10.33;;;9.43;;
4724;SDS011;2376;53.544;10.226;2022-11-15T14:17:58;9.77;;;8.80;;
4724;SDS011;2376;53.544;10.226;2022-11-15T14:20:27;10.90;;;8.87;;
4724;SDS011;2376;53.544;10.226;2022-11-15T14:22:56;9.73;;;8.57;;
4724;SDS011;2376;53.544;10.226;2022-11-15T14:25:24;8.87;;;8.00;;
4724;SDS011;2376;53.544;10.226;2022-11-15T14:31:01;9.10;;;8.20;;
4724;SDS011;2376;53.544;10.226;2022-11-15T14:33:33;11.60;;;8.07;;
4724;SDS011;2376;53.544;10.226;2022-11-15T14:36:03;9.80;;;8.90;;
4724;SDS011;2376;53.544;10.226;2022-11-15T14:38:31;8.37;;;7.57;;
4724;SDS011;2376;53.544;10.226;2022-11-15T14:40:59;9.33;;;8.17;;
4724;SDS011;2376;53.544;10.226;2022-11-15T14:43:26;9.07;;;8.17;;
4724;SDS011;2376;53.544;10.226;2022-11-15T14:45:54;8.73;;;7.77;;
4724;SDS011;2376;53.544;10.226;2022-11-15T14:48:21;10.87;;;9.13;;
4724;SDS011;2376;53.544;10.226;2022-11-15T14:50:48;9.33;;;8.43;;
4724;SDS011;2376;53.544;10.226;2022-11-15T14:53:15;8.93;;;8.03;;
4724;SDS011;2376;53.544;10.226;2022-11-15T14:55:44;8.83;;;8.03;;
4724;SDS011;2376;53.544;10.226;2022-11-15T14:58:12;8.23;;;7.53;;
4724;SDS011;2376;53.544;10.226;2022-11-15T15:00:39;9.43;;;8.50;;
4724;SDS011;2376;53.544;10.226;2022-11-15T15:03:08;10.00;;;8.33;;
4724;SDS011;2376;53.544;10.226;2022-11-15T15:05:36;7.77;;;7.17;;
4724;SDS011;2376;53.544;10.226;2022-11-15T15:08:03;9.80;;;8.80;;
4724;SDS011;2376;53.544;10.226;2022-11-15T15:10:31;9.20;;;8.30;;
4724;SDS011;2376;53.544;10.226;2022-11-15T15:13:00;10.10;;;9.07;;
4724;SDS011;2376;53.544;10.226;2022-11-15T15:15:29;9.57;;;8.50;;